sensor_id;sensor_type;location;lat;lon;timestamp;P1;durP1;ratioP1;P2;durP2;ratioP2
19951;SDS011;10137;49.406;19.484;2023-06-14T00:01:01;3.47;;;2.60;;
19951;SDS011;10137;49.406;19.484;2023-06-14T00:03:31;4.60;;;2.80;;
19951;SDS011;10137;49.406;19.484;2023-06-14T00:06:00;6.03;;;2.90;;
19951;SDS011;10137;49.406;19.484;2023-06-14T00:08:28;5.80;;;2.87;;
19951;SDS011;10137;49.406;19.484;2023-06-14T00:10:57;4.40;;;3.10;;
19951;SDS011;10137;49.406;19.484;2023-06-14T00:13:25;3.93;;;2.67;;
19951;SDS011;10137;49.406;19.484;2023-06-14T00:15:53;6.53;;;3.20;;
19951;SDS011;10137;49.406;19.484;2023-06-14T00:18:20;5.27;;;3.13;;
19951;SDS011;10137;49.406;19.484;2023-06-14T00:20:50;3.67;;;2.60;;
19951;SDS011;10137;49.406;19.484;2023-06-14T00:23:19;3.57;;;2.70;;
19951;SDS011;10137;49.406;19.484;2023-06-14T00:25:47;4.37;;;2.70;;
19951;SDS011;10137;49.406;19.484;2023-06-14T00:28:14;4.33;;;2.93;;
19951;SDS011;10137;49.406;19.484;2023-06-14T00:30:41;4.70;;;3.13;;
19951;SDS011;10137;49.406;19.484;2023-06-14T00:33:10;5.63;;;3.13;;
19951;SDS011;10137;49.406;19.484;2023-06-14T00:35:37;4.07;;;3.00;;
19951;SDS011;10137;49.406;19.484;2023-06-14T00:38:05;5.87;;;3.53;;
19951;SDS011;10137;49.406;19.484;2023-06-14T00:40:35;3.87;;;2.77;;
19951;SDS011;10137;49.406;19.484;2023-06-14T00:43:02;4.77;;;3.13;;
19951;SDS011;10137;49.406;19.484;2023-06-14T00:45:29;3.70;;;3.17;;
19951;SDS011;10137;49.406;19.484;2023-06-14T00:48:01;5.07;;;2.80;;
19951;SDS011;10137;49.406;19.484;2023-06-14T00:50:30;6.90;;;2.80;;
19951;SDS011;10137;49.406;19.484;2023-06-14T00:52:58;5.90;;;3.10;;
19951;SDS011;10137;49.406;19.484;2023-06-14T00:55:27;4.40;;;3.03;;
19951;SDS011;10137;49.406;19.484;2023-06-14T00:57:55;5.77;;;2.80;;
19951;SDS011;10137;49.406;19.484;2023-06-14T01:00:25;3.87;;;3.00;;
19951;SDS011;10137;49.406;19.484;2023-06-14T01:02:55;4.67;;;2.93;;
19951;SDS011;10137;49.406;19.484;2023-06-14T01:05:23;5.40;;;3.33;;
19951;SDS011;10137;49.406;19.484;2023-06-14T01:07:55;6.43;;;3.30;;
19951;SDS011;10137;49.406;19.484;2023-06-14T01:10:36;4.47;;;3.00;;
19951;SDS011;10137;49.406;19.484;2023-06-14T01:13:18;5.07;;;3.23;;
19951;SDS011;10137;49.406;19.484;2023-06-14T01:15:49;5.27;;;3.43;;
19951;SDS011;10137;49.406;19.484;2023-06-14T01:18:18;5.30;;;3.00;;
19951;SDS011;10137;49.406;19.484;2023-06-14T01:20:47;4.50;;;2.87;;
19951;SDS011;10137;49.406;19.484;2023-06-14T01:23:17;4.90;;;2.97;;
19951;SDS011;10137;49.406;19.484;2023-06-14T01:25:44;13.63;;;3.40;;
19951;SDS011;10137;49.406;19.484;2023-06-14T01:28:12;3.60;;;2.77;;
19951;SDS011;10137;49.406;19.484;2023-06-14T01:30:44;5.37;;;2.93;;
19951;SDS011;10137;49.406;19.484;2023-06-14T01:33:14;5.17;;;2.73;;
19951;SDS011;10137;49.406;19.484;2023-06-14T01:35:44;3.73;;;2.70;;
19951;SDS011;10137;49.406;19.484;2023-06-14T01:38:14;4.63;;;3.00;;
19951;SDS011;10137;49.406;19.484;2023-06-14T01:40:43;3.90;;;2.90;;
19951;SDS011;10137;49.406;19.484;2023-06-14T01:43:11;4.53;;;2.73;;
19951;SDS011;10137;49.406;19.484;2023-06-14T01:45:40;5.30;;;3.00;;
19951;SDS011;10137;49.406;19.484;2023-06-14T01:48:08;6.17;;;3.00;;
19951;SDS011;10137;49.406;19.484;2023-06-14T01:50:36;3.63;;;2.90;;
19951;SDS011;10137;49.406;19.484;2023-06-14T01:53:03;5.70;;;2.97;;
19951;SDS011;10137;49.406;19.484;2023-06-14T01:55:33;5.50;;;3.30;;
19951;SDS011;10137;49.406;19.484;2023-06-14T01:58:05;3.80;;;2.83;;
19951;SDS011;10137;49.406;19.484;2023-06-14T02:00:33;5.63;;;3.30;;
19951;SDS011;10137;49.406;19.484;2023-06-14T02:03:01;4.67;;;2.97;;
19951;SDS011;10137;49.406;19.484;2023-06-14T02:05:29;3.73;;;3.07;;
19951;SDS011;10137;49.406;19.484;2023-06-14T02:07:56;6.00;;;3.00;;
19951;SDS011;10137;49.406;19.484;2023-06-14T02:10:23;5.33;;;3.20;;
19951;SDS011;10137;49.406;19.484;2023-06-14T02:12:50;4.73;;;3.33;;
19951;SDS011;10137;49.406;19.484;2023-06-14T02:15:19;6.47;;;3.13;;
19951;SDS011;10137;49.406;19.484;2023-06-14T02:17:48;4.57;;;2.90;;
19951;SDS011;10137;49.406;19.484;2023-06-14T02:20:15;5.47;;;3.27;;
19951;SDS011;10137;49.406;19.484;2023-06-14T02:22:44;5.70;;;2.80;;
19951;SDS011;10137;49.406;19.484;2023-06-14T02:25:11;6.10;;;2.83;;
19951;SDS011;10137;49.406;19.484;2023-06-14T02:27:39;4.50;;;3.00;;
19951;SDS011;10137;49.406;19.484;2023-06-14T02:30:07;4.17;;;3.00;;
19951;SDS011;10137;49.406;19.484;2023-06-14T02:32:37;4.17;;;2.90;;
19951;SDS011;10137;49.406;19.484;2023-06-14T02:35:07;4.07;;;2.83;;
19951;SDS011;10137;49.406;19.484;2023-06-14T02:37:35;4.93;;;3.30;;
19951;SDS011;10137;49.406;19.484;2023-06-14T02:40:03;4.40;;;3.40;;
19951;SDS011;10137;49.406;19.484;2023-06-14T02:42:31;5.30;;;3.77;;
19951;SDS011;10137;49.406;19.484;2023-06-14T02:44:59;4.87;;;3.80;;
19951;SDS011;10137;49.406;19.484;2023-06-14T02:47:27;21.23;;;5.27;;
19951;SDS011;10137;49.406;19.484;2023-06-14T02:49:57;4.43;;;3.23;;
19951;SDS011;10137;49.406;19.484;2023-06-14T02:52:24;6.17;;;3.83;;
19951;SDS011;10137;49.406;19.484;2023-06-14T02:54:51;4.87;;;3.47;;
19951;SDS011;10137;49.406;19.484;2023-06-14T02:57:20;8.37;;;4.10;;
19951;SDS011;10137;49.406;19.484;2023-06-14T02:59:49;18.27;;;5.00;;
19951;SDS011;10137;49.406;19.484;2023-06-14T03:02:17;6.43;;;4.63;;
19951;SDS011;10137;49.406;19.484;2023-06-14T03:04:47;6.17;;;3.53;;
19951;SDS011;10137;49.406;19.484;2023-06-14T03:07:21;6.00;;;3.47;;
19951;SDS011;10137;49.406;19.484;2023-06-14T03:09:49;6.33;;;3.30;;
19951;SDS011;10137;49.406;19.484;2023-06-14T03:12:16;5.80;;;3.47;;
19951;SDS011;10137;49.406;19.484;2023-06-14T03:14:43;5.47;;;3.40;;
19951;SDS011;10137;49.406;19.484;2023-06-14T03:17:10;5.17;;;3.23;;
19951;SDS011;10137;49.406;19.484;2023-06-14T03:19:37;4.53;;;3.40;;
19951;SDS011;10137;49.406;19.484;2023-06-14T03:22:06;5.73;;;3.27;;
19951;SDS011;10137;49.406;19.484;2023-06-14T03:24:35;6.97;;;3.60;;
19951;SDS011;10137;49.406;19.484;2023-06-14T03:27:03;9.10;;;4.70;;
19951;SDS011;10137;49.406;19.484;2023-06-14T03:29:31;5.77;;;3.60;;
19951;SDS011;10137;49.406;19.484;2023-06-14T03:32:00;6.53;;;3.50;;
19951;SDS011;10137;49.406;19.484;2023-06-14T03:34:30;5.87;;;3.30;;
19951;SDS011;10137;49.406;19.484;2023-06-14T03:36:57;9.30;;;3.53;;
19951;SDS011;10137;49.406;19.484;2023-06-14T03:39:25;5.03;;;3.00;;
19951;SDS011;10137;49.406;19.484;2023-06-14T03:41:54;6.73;;;3.47;;
19951;SDS011;10137;49.406;19.484;2023-06-14T03:44:22;5.53;;;3.60;;
19951;SDS011;10137;49.406;19.484;2023-06-14T03:46:50;7.10;;;3.27;;
19951;SDS011;10137;49.406;19.484;2023-06-14T03:49:18;7.50;;;3.37;;
19951;SDS011;10137;49.406;19.484;2023-06-14T03:51:46;5.17;;;3.30;;
19951;SDS011;10137;49.406;19.484;2023-06-14T03:54:17;5.77;;;3.50;;
19951;SDS011;10137;49.406;19.484;2023-06-14T03:56:44;4.70;;;3.40;;
19951;SDS011;10137;49.406;19.484;2023-06-14T03:59:14;6.23;;;3.73;;
19951;SDS011;10137;49.406;19.484;2023-06-14T04:01:42;6.37;;;3.53;;
19951;SDS011;10137;49.406;19.484;2023-06-14T04:04:11;7.53;;;3.80;;
19951;SDS011;10137;49.406;19.484;2023-06-14T04:06:43;5.40;;;3.93;;
19951;SDS011;10137;49.406;19.484;2023-06-14T04:09:14;5.30;;;3.83;;
19951;SDS011;10137;49.406;19.484;2023-06-14T04:11:42;7.03;;;4.43;;
19951;SDS011;10137;49.406;19.484;2023-06-14T04:14:10;14.70;;;5.23;;
19951;SDS011;10137;49.406;19.484;2023-06-14T04:16:40;9.67;;;4.00;;
19951;SDS011;10137;49.406;19.484;2023-06-14T04:19:07;10.83;;;5.17;;
19951;SDS011;10137;49.406;19.484;2023-06-14T04:21:34;10.07;;;4.93;;
19951;SDS011;10137;49.406;19.484;2023-06-14T04:24:03;14.13;;;5.77;;
19951;SDS011;10137;49.406;19.484;2023-06-14T04:26:33;15.97;;;5.50;;
19951;SDS011;10137;49.406;19.484;2023-06-14T04:29:02;31.83;;;9.80;;
19951;SDS011;10137;49.406;19.484;2023-06-14T04:31:30;83.93;;;19.50;;
19951;SDS011;10137;49.406;19.484;2023-06-14T04:34:01;43.80;;;11.90;;
19951;SDS011;10137;49.406;19.484;2023-06-14T04:36:30;25.53;;;9.07;;
19951;SDS011;10137;49.406;19.484;2023-06-14T04:39:01;32.53;;;10.83;;
19951;SDS011;10137;49.406;19.484;2023-06-14T04:41:29;29.07;;;10.63;;
19951;SDS011;10137;49.406;19.484;2023-06-14T04:44:00;22.50;;;9.07;;
19951;SDS011;10137;49.406;19.484;2023-06-14T04:46:29;15.20;;;7.13;;
19951;SDS011;10137;49.406;19.484;2023-06-14T04:48:58;17.03;;;7.07;;
19951;SDS011;10137;49.406;19.484;2023-06-14T04:51:29;48.23;;;14.03;;
19951;SDS011;10137;49.406;19.484;2023-06-14T04:53:58;21.10;;;9.83;;
19951;SDS011;10137;49.406;19.484;2023-06-14T04:56:27;16.43;;;8.53;;
19951;SDS011;10137;49.406;19.484;2023-06-14T04:58:56;15.30;;;8.47;;
19951;SDS011;10137;49.406;19.484;2023-06-14T05:01:28;12.13;;;7.10;;
19951;SDS011;10137;49.406;19.484;2023-06-14T05:03:56;14.63;;;7.97;;
19951;SDS011;10137;49.406;19.484;2023-06-14T05:06:24;14.43;;;8.20;;
19951;SDS011;10137;49.406;19.484;2023-06-14T05:08:53;14.87;;;7.70;;
19951;SDS011;10137;49.406;19.484;2023-06-14T05:11:20;15.57;;;8.50;;
19951;SDS011;10137;49.406;19.484;2023-06-14T05:13:50;13.93;;;8.07;;
19951;SDS011;10137;49.406;19.484;2023-06-14T05:16:18;14.20;;;7.53;;
19951;SDS011;10137;49.406;19.484;2023-06-14T05:18:49;13.90;;;8.27;;
19951;SDS011;10137;49.406;19.484;2023-06-14T05:21:18;18.00;;;8.10;;
19951;SDS011;10137;49.406;19.484;2023-06-14T05:23:48;14.00;;;7.67;;
19951;SDS011;10137;49.406;19.484;2023-06-14T05:26:16;15.60;;;8.60;;
19951;SDS011;10137;49.406;19.484;2023-06-14T05:28:45;15.33;;;7.60;;
19951;SDS011;10137;49.406;19.484;2023-06-14T05:31:13;15.13;;;7.70;;
19951;SDS011;10137;49.406;19.484;2023-06-14T05:33:41;16.97;;;8.27;;
19951;SDS011;10137;49.406;19.484;2023-06-14T05:36:08;26.20;;;9.67;;
19951;SDS011;10137;49.406;19.484;2023-06-14T05:38:35;22.83;;;8.80;;
19951;SDS011;10137;49.406;19.484;2023-06-14T05:41:04;17.37;;;7.83;;
19951;SDS011;10137;49.406;19.484;2023-06-14T05:43:31;30.67;;;10.43;;
19951;SDS011;10137;49.406;19.484;2023-06-14T05:45:58;14.20;;;7.00;;
19951;SDS011;10137;49.406;19.484;2023-06-14T05:48:25;11.90;;;6.80;;
19951;SDS011;10137;49.406;19.484;2023-06-14T05:50:52;13.07;;;6.97;;
19951;SDS011;10137;49.406;19.484;2023-06-14T05:53:19;16.97;;;8.10;;
19951;SDS011;10137;49.406;19.484;2023-06-14T05:55:46;28.67;;;9.57;;
19951;SDS011;10137;49.406;19.484;2023-06-14T05:58:14;13.77;;;7.40;;
19951;SDS011;10137;49.406;19.484;2023-06-14T06:00:41;9.53;;;6.60;;
19951;SDS011;10137;49.406;19.484;2023-06-14T06:03:08;14.60;;;7.13;;
19951;SDS011;10137;49.406;19.484;2023-06-14T06:05:36;11.93;;;6.67;;
19951;SDS011;10137;49.406;19.484;2023-06-14T06:08:03;12.70;;;6.87;;
19951;SDS011;10137;49.406;19.484;2023-06-14T06:10:32;16.07;;;6.90;;
19951;SDS011;10137;49.406;19.484;2023-06-14T06:12:59;13.97;;;7.10;;
19951;SDS011;10137;49.406;19.484;2023-06-14T06:15:27;9.97;;;6.53;;
19951;SDS011;10137;49.406;19.484;2023-06-14T06:17:54;7.37;;;5.50;;
19951;SDS011;10137;49.406;19.484;2023-06-14T06:20:21;14.13;;;6.73;;
19951;SDS011;10137;49.406;19.484;2023-06-14T06:22:53;12.47;;;5.83;;
19951;SDS011;10137;49.406;19.484;2023-06-14T06:25:20;10.50;;;6.10;;
19951;SDS011;10137;49.406;19.484;2023-06-14T06:27:50;13.40;;;6.30;;
19951;SDS011;10137;49.406;19.484;2023-06-14T06:30:17;9.63;;;6.03;;
19951;SDS011;10137;49.406;19.484;2023-06-14T06:32:46;12.17;;;6.10;;
19951;SDS011;10137;49.406;19.484;2023-06-14T06:35:13;8.37;;;5.80;;
19951;SDS011;10137;49.406;19.484;2023-06-14T06:37:41;11.17;;;5.60;;
19951;SDS011;10137;49.406;19.484;2023-06-14T06:40:09;7.93;;;5.37;;
19951;SDS011;10137;49.406;19.484;2023-06-14T06:42:36;5.23;;;3.50;;
19951;SDS011;10137;49.406;19.484;2023-06-14T06:45:03;5.03;;;3.90;;
19951;SDS011;10137;49.406;19.484;2023-06-14T06:47:31;5.63;;;4.13;;
19951;SDS011;10137;49.406;19.484;2023-06-14T06:49:59;8.73;;;4.67;;
19951;SDS011;10137;49.406;19.484;2023-06-14T06:52:26;5.80;;;4.23;;
19951;SDS011;10137;49.406;19.484;2023-06-14T06:54:54;6.27;;;4.20;;
19951;SDS011;10137;49.406;19.484;2023-06-14T06:57:22;5.87;;;3.90;;
19951;SDS011;10137;49.406;19.484;2023-06-14T06:59:49;6.30;;;4.53;;
19951;SDS011;10137;49.406;19.484;2023-06-14T07:02:16;6.63;;;4.97;;
19951;SDS011;10137;49.406;19.484;2023-06-14T07:04:43;8.77;;;5.13;;
19951;SDS011;10137;49.406;19.484;2023-06-14T07:07:11;6.13;;;4.00;;
19951;SDS011;10137;49.406;19.484;2023-06-14T07:09:38;7.27;;;4.60;;
19951;SDS011;10137;49.406;19.484;2023-06-14T07:12:06;5.47;;;4.30;;
19951;SDS011;10137;49.406;19.484;2023-06-14T07:14:34;7.43;;;3.90;;
19951;SDS011;10137;49.406;19.484;2023-06-14T07:17:00;7.23;;;4.30;;
19951;SDS011;10137;49.406;19.484;2023-06-14T07:19:29;5.53;;;4.40;;
19951;SDS011;10137;49.406;19.484;2023-06-14T07:21:56;7.97;;;4.70;;
19951;SDS011;10137;49.406;19.484;2023-06-14T07:24:25;6.20;;;4.80;;
19951;SDS011;10137;49.406;19.484;2023-06-14T07:26:53;7.13;;;4.60;;
19951;SDS011;10137;49.406;19.484;2023-06-14T07:29:21;7.00;;;4.40;;
19951;SDS011;10137;49.406;19.484;2023-06-14T07:31:48;8.17;;;4.27;;
19951;SDS011;10137;49.406;19.484;2023-06-14T07:34:15;6.83;;;4.27;;
19951;SDS011;10137;49.406;19.484;2023-06-14T07:36:42;6.73;;;4.77;;
19951;SDS011;10137;49.406;19.484;2023-06-14T07:39:10;5.13;;;4.30;;
19951;SDS011;10137;49.406;19.484;2023-06-14T07:41:38;6.93;;;4.00;;
19951;SDS011;10137;49.406;19.484;2023-06-14T07:44:05;6.43;;;4.37;;
19951;SDS011;10137;49.406;19.484;2023-06-14T07:46:32;7.70;;;4.63;;
19951;SDS011;10137;49.406;19.484;2023-06-14T07:48:59;5.33;;;4.10;;
19951;SDS011;10137;49.406;19.484;2023-06-14T07:51:26;11.07;;;4.47;;
19951;SDS011;10137;49.406;19.484;2023-06-14T07:53:53;5.60;;;4.07;;
19951;SDS011;10137;49.406;19.484;2023-06-14T07:56:21;5.10;;;4.00;;
19951;SDS011;10137;49.406;19.484;2023-06-14T07:58:49;5.27;;;4.10;;
19951;SDS011;10137;49.406;19.484;2023-06-14T08:01:16;4.63;;;3.50;;
19951;SDS011;10137;49.406;19.484;2023-06-14T08:03:45;6.13;;;3.70;;
19951;SDS011;10137;49.406;19.484;2023-06-14T08:06:12;6.27;;;3.87;;
19951;SDS011;10137;49.406;19.484;2023-06-14T08:08:39;4.73;;;3.70;;
19951;SDS011;10137;49.406;19.484;2023-06-14T08:11:06;5.27;;;3.60;;
19951;SDS011;10137;49.406;19.484;2023-06-14T08:13:33;5.80;;;3.47;;
19951;SDS011;10137;49.406;19.484;2023-06-14T08:16:01;4.93;;;3.40;;
19951;SDS011;10137;49.406;19.484;2023-06-14T08:18:30;4.30;;;3.30;;
19951;SDS011;10137;49.406;19.484;2023-06-14T08:20:56;3.47;;;3.00;;
19951;SDS011;10137;49.406;19.484;2023-06-14T08:23:24;10.97;;;3.27;;
19951;SDS011;10137;49.406;19.484;2023-06-14T08:25:51;4.87;;;3.20;;
19951;SDS011;10137;49.406;19.484;2023-06-14T08:28:18;4.10;;;3.07;;
19951;SDS011;10137;49.406;19.484;2023-06-14T08:30:44;3.70;;;3.17;;
19951;SDS011;10137;49.406;19.484;2023-06-14T08:33:13;5.17;;;3.30;;
19951;SDS011;10137;49.406;19.484;2023-06-14T08:35:40;5.47;;;3.20;;
19951;SDS011;10137;49.406;19.484;2023-06-14T08:38:07;5.20;;;2.90;;
19951;SDS011;10137;49.406;19.484;2023-06-14T08:40:36;3.43;;;2.73;;
19951;SDS011;10137;49.406;19.484;2023-06-14T08:43:04;3.13;;;2.43;;
19951;SDS011;10137;49.406;19.484;2023-06-14T08:45:31;5.60;;;3.20;;
19951;SDS011;10137;49.406;19.484;2023-06-14T08:47:58;3.97;;;2.70;;
19951;SDS011;10137;49.406;19.484;2023-06-14T08:50:28;4.03;;;3.00;;
19951;SDS011;10137;49.406;19.484;2023-06-14T08:52:56;3.13;;;2.70;;
19951;SDS011;10137;49.406;19.484;2023-06-14T08:55:27;6.20;;;2.97;;
19951;SDS011;10137;49.406;19.484;2023-06-14T08:57:54;5.17;;;2.50;;
19951;SDS011;10137;49.406;19.484;2023-06-14T09:00:23;3.07;;;2.50;;
19951;SDS011;10137;49.406;19.484;2023-06-14T09:02:52;2.70;;;2.10;;
19951;SDS011;10137;49.406;19.484;2023-06-14T09:05:22;4.00;;;2.60;;
19951;SDS011;10137;49.406;19.484;2023-06-14T09:07:51;5.60;;;2.50;;
19951;SDS011;10137;49.406;19.484;2023-06-14T09:10:20;5.20;;;2.40;;
19951;SDS011;10137;49.406;19.484;2023-06-14T09:12:48;5.33;;;2.37;;
19951;SDS011;10137;49.406;19.484;2023-06-14T09:15:15;3.40;;;2.50;;
19951;SDS011;10137;49.406;19.484;2023-06-14T09:17:42;3.50;;;2.33;;
19951;SDS011;10137;49.406;19.484;2023-06-14T09:20:10;2.70;;;2.10;;
19951;SDS011;10137;49.406;19.484;2023-06-14T09:22:38;2.40;;;2.20;;
19951;SDS011;10137;49.406;19.484;2023-06-14T09:25:08;2.63;;;2.10;;
19951;SDS011;10137;49.406;19.484;2023-06-14T09:27:35;2.50;;;2.17;;
19951;SDS011;10137;49.406;19.484;2023-06-14T09:30:05;5.27;;;2.10;;
19951;SDS011;10137;49.406;19.484;2023-06-14T09:32:36;4.13;;;2.20;;
19951;SDS011;10137;49.406;19.484;2023-06-14T09:35:04;2.50;;;1.90;;
19951;SDS011;10137;49.406;19.484;2023-06-14T09:37:32;2.37;;;2.17;;
19951;SDS011;10137;49.406;19.484;2023-06-14T09:40:02;5.47;;;2.87;;
19951;SDS011;10137;49.406;19.484;2023-06-14T09:42:37;2.80;;;2.10;;
19951;SDS011;10137;49.406;19.484;2023-06-14T09:45:07;2.70;;;2.03;;
19951;SDS011;10137;49.406;19.484;2023-06-14T09:47:37;3.83;;;2.50;;
19951;SDS011;10137;49.406;19.484;2023-06-14T09:50:10;2.67;;;2.10;;
19951;SDS011;10137;49.406;19.484;2023-06-14T09:52:41;2.30;;;1.90;;
19951;SDS011;10137;49.406;19.484;2023-06-14T09:55:12;3.67;;;1.90;;
19951;SDS011;10137;49.406;19.484;2023-06-14T09:57:42;2.23;;;1.90;;
19951;SDS011;10137;49.406;19.484;2023-06-14T10:00:13;4.10;;;2.10;;
19951;SDS011;10137;49.406;19.484;2023-06-14T10:02:45;2.27;;;1.97;;
19951;SDS011;10137;49.406;19.484;2023-06-14T10:05:21;2.10;;;1.80;;
19951;SDS011;10137;49.406;19.484;2023-06-14T10:07:52;2.37;;;1.93;;
19951;SDS011;10137;49.406;19.484;2023-06-14T10:10:25;2.23;;;1.83;;
19951;SDS011;10137;49.406;19.484;2023-06-14T10:12:53;2.80;;;1.83;;
19951;SDS011;10137;49.406;19.484;2023-06-14T10:15:23;1.90;;;1.67;;
19951;SDS011;10137;49.406;19.484;2023-06-14T10:17:58;3.37;;;1.80;;
19951;SDS011;10137;49.406;19.484;2023-06-14T10:20:30;2.30;;;1.77;;
19951;SDS011;10137;49.406;19.484;2023-06-14T10:23:03;2.10;;;1.80;;
19951;SDS011;10137;49.406;19.484;2023-06-14T10:25:35;2.30;;;1.70;;
19951;SDS011;10137;49.406;19.484;2023-06-14T10:28:05;1.97;;;1.60;;
19951;SDS011;10137;49.406;19.484;2023-06-14T10:33:33;1.87;;;1.50;;
19951;SDS011;10137;49.406;19.484;2023-06-14T10:36:09;2.73;;;1.90;;
19951;SDS011;10137;49.406;19.484;2023-06-14T10:39:04;2.97;;;1.50;;
19951;SDS011;10137;49.406;19.484;2023-06-14T10:41:35;4.93;;;1.80;;
19951;SDS011;10137;49.406;19.484;2023-06-14T10:47:14;5.07;;;1.97;;
19951;SDS011;10137;49.406;19.484;2023-06-14T10:49:50;1.93;;;1.40;;
19951;SDS011;10137;49.406;19.484;2023-06-14T10:52:23;4.33;;;1.90;;
19951;SDS011;10137;49.406;19.484;2023-06-14T10:55:00;2.73;;;1.80;;
19951;SDS011;10137;49.406;19.484;2023-06-14T10:57:32;2.33;;;1.50;;
19951;SDS011;10137;49.406;19.484;2023-06-14T11:00:01;5.50;;;1.97;;
19951;SDS011;10137;49.406;19.484;2023-06-14T11:02:49;6.97;;;1.93;;
19951;SDS011;10137;49.406;19.484;2023-06-14T11:05:24;1.60;;;1.40;;
19951;SDS011;10137;49.406;19.484;2023-06-14T11:07:58;6.60;;;1.90;;
19951;SDS011;10137;49.406;19.484;2023-06-14T11:10:40;1.90;;;1.70;;
19951;SDS011;10137;49.406;19.484;2023-06-14T11:13:12;1.97;;;1.70;;
19951;SDS011;10137;49.406;19.484;2023-06-14T11:15:43;6.13;;;2.33;;
19951;SDS011;10137;49.406;19.484;2023-06-14T11:18:13;2.33;;;1.80;;
19951;SDS011;10137;49.406;19.484;2023-06-14T11:20:45;2.10;;;1.70;;
19951;SDS011;10137;49.406;19.484;2023-06-14T11:23:14;2.60;;;1.70;;
19951;SDS011;10137;49.406;19.484;2023-06-14T11:25:42;2.97;;;1.60;;
19951;SDS011;10137;49.406;19.484;2023-06-14T11:28:11;2.30;;;1.40;;
19951;SDS011;10137;49.406;19.484;2023-06-14T11:30:38;4.63;;;1.53;;
19951;SDS011;10137;49.406;19.484;2023-06-14T11:33:09;2.03;;;1.70;;
19951;SDS011;10137;49.406;19.484;2023-06-14T11:35:36;2.60;;;1.67;;
19951;SDS011;10137;49.406;19.484;2023-06-14T11:38:03;2.50;;;1.93;;
19951;SDS011;10137;49.406;19.484;2023-06-14T11:40:32;6.90;;;2.10;;
19951;SDS011;10137;49.406;19.484;2023-06-14T11:43:00;2.50;;;1.70;;
19951;SDS011;10137;49.406;19.484;2023-06-14T11:45:29;4.80;;;1.93;;
19951;SDS011;10137;49.406;19.484;2023-06-14T11:47:59;5.90;;;1.70;;
19951;SDS011;10137;49.406;19.484;2023-06-14T11:50:28;3.10;;;1.90;;
19951;SDS011;10137;49.406;19.484;2023-06-14T11:52:56;4.67;;;1.87;;
19951;SDS011;10137;49.406;19.484;2023-06-14T11:55:35;3.97;;;1.77;;
19951;SDS011;10137;49.406;19.484;2023-06-14T11:58:04;3.47;;;2.00;;
19951;SDS011;10137;49.406;19.484;2023-06-14T12:00:32;2.80;;;1.77;;
19951;SDS011;10137;49.406;19.484;2023-06-14T12:03:02;3.70;;;2.20;;
19951;SDS011;10137;49.406;19.484;2023-06-14T12:05:36;4.40;;;1.70;;
19951;SDS011;10137;49.406;19.484;2023-06-14T12:08:04;4.43;;;2.17;;
19951;SDS011;10137;49.406;19.484;2023-06-14T12:10:41;2.63;;;2.20;;
19951;SDS011;10137;49.406;19.484;2023-06-14T12:13:10;3.60;;;2.20;;
19951;SDS011;10137;49.406;19.484;2023-06-14T12:15:38;8.57;;;2.38;;
19951;SDS011;10137;49.406;19.484;2023-06-14T12:18:09;4.60;;;2.27;;
19951;SDS011;10137;49.406;19.484;2023-06-14T12:20:42;7.97;;;3.17;;
19951;SDS011;10137;49.406;19.484;2023-06-14T12:23:12;4.65;;;2.22;;
19951;SDS011;10137;49.406;19.484;2023-06-14T12:25:40;3.13;;;2.40;;
19951;SDS011;10137;49.406;19.484;2023-06-14T12:28:12;4.60;;;2.75;;
19951;SDS011;10137;49.406;19.484;2023-06-14T12:30:42;4.43;;;2.97;;
19951;SDS011;10137;49.406;19.484;2023-06-14T12:33:09;8.05;;;3.60;;
19951;SDS011;10137;49.406;19.484;2023-06-14T12:35:39;8.13;;;3.55;;
19951;SDS011;10137;49.406;19.484;2023-06-14T12:38:08;3.07;;;2.20;;
19951;SDS011;10137;49.406;19.484;2023-06-14T12:40:38;4.20;;;2.13;;
19951;SDS011;10137;49.406;19.484;2023-06-14T12:43:08;3.92;;;2.50;;
19951;SDS011;10137;49.406;19.484;2023-06-14T12:45:39;4.97;;;3.00;;
19951;SDS011;10137;49.406;19.484;2023-06-14T12:48:07;6.45;;;2.33;;
19951;SDS011;10137;49.406;19.484;2023-06-14T12:50:44;2.50;;;1.95;;
19951;SDS011;10137;49.406;19.484;2023-06-14T12:53:11;4.35;;;2.13;;
19951;SDS011;10137;49.406;19.484;2023-06-14T12:55:41;6.38;;;2.17;;
19951;SDS011;10137;49.406;19.484;2023-06-14T12:58:08;8.35;;;2.63;;
19951;SDS011;10137;49.406;19.484;2023-06-14T13:00:38;13.50;;;3.63;;
19951;SDS011;10137;49.406;19.484;2023-06-14T13:03:07;6.60;;;3.08;;
19951;SDS011;10137;49.406;19.484;2023-06-14T13:05:35;4.10;;;2.72;;
19951;SDS011;10137;49.406;19.484;2023-06-14T13:08:04;5.47;;;2.50;;
19951;SDS011;10137;49.406;19.484;2023-06-14T13:10:35;5.43;;;2.90;;
19951;SDS011;10137;49.406;19.484;2023-06-14T13:13:05;7.63;;;2.27;;
19951;SDS011;10137;49.406;19.484;2023-06-14T13:15:34;5.60;;;2.23;;
19951;SDS011;10137;49.406;19.484;2023-06-14T13:18:02;7.23;;;2.40;;
19951;SDS011;10137;49.406;19.484;2023-06-14T13:20:30;3.50;;;2.00;;
19951;SDS011;10137;49.406;19.484;2023-06-14T13:22:58;2.47;;;1.77;;
19951;SDS011;10137;49.406;19.484;2023-06-14T13:25:31;3.77;;;1.90;;
19951;SDS011;10137;49.406;19.484;2023-06-14T13:27:59;3.70;;;2.00;;
19951;SDS011;10137;49.406;19.484;2023-06-14T13:30:28;3.40;;;2.20;;
19951;SDS011;10137;49.406;19.484;2023-06-14T13:32:55;4.10;;;2.50;;
19951;SDS011;10137;49.406;19.484;2023-06-14T13:35:22;6.57;;;3.10;;
19951;SDS011;10137;49.406;19.484;2023-06-14T13:37:50;4.30;;;3.10;;
19951;SDS011;10137;49.406;19.484;2023-06-14T13:40:17;4.63;;;3.00;;
19951;SDS011;10137;49.406;19.484;2023-06-14T13:42:46;4.90;;;3.00;;
19951;SDS011;10137;49.406;19.484;2023-06-14T13:45:14;5.20;;;2.57;;
19951;SDS011;10137;49.406;19.484;2023-06-14T13:47:42;2.93;;;2.20;;
19951;SDS011;10137;49.406;19.484;2023-06-14T13:50:09;3.73;;;2.37;;
19951;SDS011;10137;49.406;19.484;2023-06-14T13:52:37;3.57;;;2.07;;
19951;SDS011;10137;49.406;19.484;2023-06-14T13:55:04;3.83;;;2.50;;
19951;SDS011;10137;49.406;19.484;2023-06-14T13:57:32;3.50;;;1.80;;
19951;SDS011;10137;49.406;19.484;2023-06-14T14:00:01;2.30;;;1.57;;
19951;SDS011;10137;49.406;19.484;2023-06-14T14:02:28;4.60;;;2.20;;
19951;SDS011;10137;49.406;19.484;2023-06-14T14:04:55;4.83;;;2.80;;
19951;SDS011;10137;49.406;19.484;2023-06-14T14:07:22;4.57;;;2.63;;
19951;SDS011;10137;49.406;19.484;2023-06-14T14:09:49;1.97;;;1.60;;
19951;SDS011;10137;49.406;19.484;2023-06-14T14:12:18;2.97;;;2.00;;
19951;SDS011;10137;49.406;19.484;2023-06-14T14:14:45;5.90;;;3.77;;
19951;SDS011;10137;49.406;19.484;2023-06-14T14:17:14;5.27;;;3.50;;
19951;SDS011;10137;49.406;19.484;2023-06-14T14:19:41;2.63;;;2.00;;
19951;SDS011;10137;49.406;19.484;2023-06-14T14:22:08;3.27;;;1.97;;
19951;SDS011;10137;49.406;19.484;2023-06-14T14:24:35;7.03;;;3.63;;
19951;SDS011;10137;49.406;19.484;2023-06-14T14:27:02;4.53;;;2.77;;
19951;SDS011;10137;49.406;19.484;2023-06-14T14:29:29;3.40;;;2.27;;
19951;SDS011;10137;49.406;19.484;2023-06-14T14:31:56;5.60;;;3.53;;
19951;SDS011;10137;49.406;19.484;2023-06-14T14:34:25;3.73;;;2.30;;
19951;SDS011;10137;49.406;19.484;2023-06-14T14:36:52;5.50;;;2.10;;
19951;SDS011;10137;49.406;19.484;2023-06-14T14:39:19;5.83;;;2.63;;
19951;SDS011;10137;49.406;19.484;2023-06-14T14:41:47;4.47;;;2.83;;
19951;SDS011;10137;49.406;19.484;2023-06-14T14:44:14;3.83;;;2.70;;
19951;SDS011;10137;49.406;19.484;2023-06-14T14:46:41;2.90;;;2.43;;
19951;SDS011;10137;49.406;19.484;2023-06-14T14:49:09;2.77;;;1.93;;